ELN weather

Bowers Field
Ellensburg, Washington, United States

Public forecast

Using degrees Fahrenheit for public forecast. Weather courtesy of forecast.io.

Current aviation weather report (METAR) for Bowers Field

Retrieved 2020/06/01 06:53 UTC (46 minutes ago):

KELN 010653Z AUTO 32015KT 10SM CLR 10/02 A3001 RMK AO2 SLP162 T01000022

Closest aviation forecast (TAF) to Bowers Field

Closest forecast is Pangborn Memorial Airport, 25.6 nm (47.5 km) NNE. Retrieved 2020/06/01 06:22 UTC (1 hour ago):

TAF KEAT 010520Z 0106/0206 31014KT P6SM BKN200 FM011800 29006KT P6SM FEW070 SCT200 FM020000 30015KT P6SM SKC FM020500 29014G20KT P6SM SKC